Time;durP1;ratioP1;P1;durP2;ratioP2;P2;SDS_P1;SDS_P2;PMS_P1;PMS_P2;Temp;Humidity;BMP_temperature;BMP_pressure;BME280_temperature;BME280_humidity;BME280_pressure;Samples;Min_cycle;Max_cycle;Signal;HPM_P1;HPM_P2
2023/09/02 00:01:36;;;;;;;1.50;1.40;;;;;;;23.68;70.80;99678.34;5112415;28;20198;-72
2023/09/02 00:04:03;;;;;;;1.40;1.40;;;;;;;23.58;71.71;99684.41;5112336;28;20203;-72
2023/09/02 00:06:30;;;;;;;1.30;1.20;;;;;;;23.51;72.79;99692.75;5112687;28;20194;-72
2023/09/02 00:08:57;;;;;;;2.43;1.03;;;;;;;23.50;73.19;99687.63;5118277;27;20647;-72
2023/09/02 00:11:25;;;;;;;1.73;1.63;;;;;;;23.47;73.10;99693.09;5112245;27;20276;-74
2023/09/02 00:13:52;;;;;;;1.50;1.40;;;;;;;23.50;73.00;99687.63;5112439;28;20190;-72
2023/09/02 00:16:19;;;;;;;1.40;1.40;;;;;;;23.50;73.18;99690.25;5112282;28;20203;-72
2023/09/02 00:18:46;;;;;;;1.27;1.27;;;;;;;23.53;73.28;99688.22;5112244;28;20616;-72
2023/09/02 00:21:13;;;;;;;1.10;1.10;;;;;;;23.57;73.03;99691.44;5116050;27;20213;-71
2023/09/02 00:23:43;;;;;;;1.10;1.10;;;;;;;23.51;72.87;99699.78;5111935;28;20576;-73
2023/09/02 00:26:10;;;;;;;1.50;1.40;;;;;;;23.51;73.07;99689.31;5112152;28;20201;-72
2023/09/02 00:28:38;;;;;;;1.80;1.70;;;;;;;23.52;72.57;99699.63;5111944;28;20214;-73
2023/09/02 00:31:05;;;;;;;1.90;1.80;;;;;;;23.56;72.65;99687.16;5112167;28;20215;-71
2023/09/02 00:33:31;;;;;;;1.27;1.27;;;;;;;23.57;72.63;99694.06;5112225;28;20201;-75
2023/09/02 00:35:58;;;;;;;1.43;1.43;;;;;;;23.64;73.01;99684.78;5114677;27;20244;-72
2023/09/02 00:38:25;;;;;;;4.77;1.27;;;;;;;23.67;73.60;99696.78;5112261;28;20260;-72
2023/09/02 00:41:00;;;;;;;1.10;1.10;;;;;;;23.68;73.74;99691.44;5111847;28;20199;-72
2023/09/02 00:43:28;;;;;;;1.17;1.07;;;;;;;23.62;74.24;99691.91;5111801;28;20222;-72
2023/09/02 00:45:56;;;;;;;1.30;1.23;;;;;;;23.62;73.87;99697.13;5111906;28;20198;-73
2023/09/02 00:48:23;;;;;;;2.03;1.93;;;;;;;23.67;74.01;99688.91;5111887;27;20248;-72
2023/09/02 00:50:50;;;;;;;1.47;1.40;;;;;;;23.67;73.92;99688.91;5111930;28;20244;-72
2023/09/02 00:53:18;;;;;;;1.73;1.63;;;;;;;23.66;73.87;99684.63;5111452;28;20248;-72
2023/09/02 00:55:47;;;;;;;1.83;1.73;;;;;;;23.64;73.82;99697.03;5111499;28;20686;-72
2023/09/02 00:58:14;;;;;;;1.50;1.47;;;;;;;23.61;73.96;99689.41;5111246;28;20194;-73
2023/09/02 01:00:41;;;;;;;1.70;1.60;;;;;;;23.57;74.99;99695.84;5111960;28;20240;-72
2023/09/02 01:03:10;;;;;;;1.60;1.50;;;;;;;23.55;75.23;99689.91;5110837;28;20255;-73
2023/09/02 01:05:37;;;;;;;1.93;1.83;;;;;;;23.55;75.33;99689.91;5107179;28;20195;-72
2023/09/02 01:08:05;;;;;;;1.70;1.60;;;;;;;23.57;75.32;99694.06;5111684;28;20218;-72
2023/09/02 01:10:35;;;;;;;2.07;1.97;;;;;;;23.57;75.39;99694.06;5111278;28;20281;-72
2023/09/02 01:13:03;;;;;;;2.20;2.10;;;;;;;23.57;75.12;99694.06;5110911;28;20305;-74
2023/09/02 01:15:30;;;;;;;1.50;1.50;;;;;;;23.54;75.39;99689.06;5111561;28;20186;-72
2023/09/02 01:17:57;;;;;;;1.67;1.57;;;;;;;23.57;74.82;99693.22;5111154;28;20681;-72
2023/09/02 01:20:28;;;;;;;1.43;1.43;;;;;;;23.49;75.09;99702.50;5111041;28;20670;-72
2023/09/02 01:23:04;;;;;;;1.63;1.63;;;;;;;23.43;75.73;99697.75;5114376;27;20277;-72
2023/09/02 01:25:47;;;;;;;1.80;1.70;;;;;;;23.34;76.59;99702.84;5111068;28;20194;-72
2023/09/02 01:28:19;;;;;;;1.70;1.60;;;;;;;23.16;77.62;99705.13;5110633;28;20240;-72
2023/09/02 01:30:49;;;;;;;1.50;1.50;;;;;;;23.18;77.77;99703.19;5111524;28;20607;-71
2023/09/02 01:33:19;;;;;;;1.93;1.83;;;;;;;23.21;78.27;99707.34;5110885;28;20194;-73
2023/09/02 01:35:47;;;;;;;1.73;1.60;;;;;;;23.24;78.17;99707.13;5117131;27;20738;-72
2023/09/02 01:38:16;;;;;;;5.53;2.07;;;;;;;23.24;78.12;99707.13;5110461;28;20685;-73
2023/09/02 01:40:44;;;;;;;1.70;1.60;;;;;;;23.24;78.38;99702.72;5111153;28;20195;-72
2023/09/02 01:43:14;;;;;;;1.33;1.33;;;;;;;23.37;77.80;99703.44;5110623;28;20542;-73
2023/09/02 01:45:44;;;;;;;1.63;1.53;;;;;;;23.43;77.36;99702.16;5111331;28;20187;-72
2023/09/02 01:48:11;;;;;;;2.03;1.77;;;;;;;23.50;77.74;99698.09;5110330;28;20202;-72
2023/09/02 01:50:40;;;;;;;2.03;1.93;;;;;;;23.55;77.82;99705.59;5110807;28;20190;-72
2023/09/02 01:53:09;;;;;;;1.87;1.77;;;;;;;23.55;78.01;99706.44;5110793;28;20214;-72
2023/09/02 01:55:36;;;;;;;1.70;1.60;;;;;;;23.57;77.84;99703.69;5109248;28;20278;-72
2023/09/02 01:58:03;;;;;;;1.50;1.50;;;;;;;23.55;77.89;99695.97;5112980;27;20673;-72
2023/09/02 02:00:30;;;;;;;1.83;1.73;;;;;;;23.57;77.72;99706.31;5110146;28;20236;-73
2023/09/02 02:02:59;;;;;;;2.07;1.97;;;;;;;23.59;77.68;99697.38;5110817;28;20198;-72
2023/09/02 02:05:35;;;;;;;2.10;2.00;;;;;;;23.59;78.21;99696.56;5110181;28;20190;-72
2023/09/02 02:08:11;;;;;;;1.60;1.60;;;;;;;23.62;78.25;99704.97;5108946;28;20259;-73
2023/09/02 02:10:41;;;;;;;2.13;2.03;;;;;;;23.64;78.31;99710.94;5109671;28;20198;-72
2023/09/02 02:13:07;;;;;;;4.83;2.10;;;;;;;23.66;78.33;99703.78;5115569;28;20233;-72
2023/09/02 02:15:34;;;;;;;2.33;2.10;;;;;;;23.66;77.88;99703.78;5109962;28;20669;-72
2023/09/02 02:18:02;;;;;;;3.70;1.60;;;;;;;23.65;78.53;99699.50;5110161;28;20248;-72
2023/09/02 02:20:38;;;;;;;1.90;1.80;;;;;;;23.54;79.52;99691.69;5116285;28;20248;-72
2023/09/02 02:23:05;;;;;;;4.40;2.30;;;;;;;23.55;79.26;99706.44;5110272;28;20204;-75
2023/09/02 02:25:31;;;;;;;2.20;2.10;;;;;;;23.55;79.10;99706.44;5109982;28;20198;-72
2023/09/02 02:27:59;;;;;;;2.73;2.60;;;;;;;23.54;79.49;99699.53;5110017;28;20190;-72
2023/09/02 02:30:26;;;;;;;2.10;2.00;;;;;;;23.56;79.66;99708.09;5110710;28;20209;-72
2023/09/02 02:32:53;;;;;;;2.40;2.07;;;;;;;23.55;79.56;99700.38;5110391;28;20592;-72
2023/09/02 02:35:22;;;;;;;2.03;1.83;;;;;;;23.53;79.24;99690.00;5110374;28;20226;-72
2023/09/02 02:37:51;;;;;;;1.67;1.57;;;;;;;23.51;79.93;99707.63;5110073;28;20224;-72
2023/09/02 02:40:18;;;;;;;1.60;1.50;;;;;;;23.51;80.72;99694.53;5110123;28;20198;-72
2023/09/02 02:42:45;;;;;;;1.80;1.73;;;;;;;23.50;81.23;99698.94;5110011;28;20255;-72
2023/09/02 02:45:12;;;;;;;3.07;1.57;;;;;;;23.48;80.86;99684.31;5110201;28;20267;-72
2023/09/02 02:47:38;;;;;;;2.60;2.27;;;;;;;23.47;80.80;99687.88;5109868;28;20194;-72
2023/09/02 02:50:06;;;;;;;1.87;1.77;;;;;;;23.47;80.43;99690.50;5109827;28;20240;-73
2023/09/02 02:52:34;;;;;;;1.83;1.73;;;;;;;23.40;80.77;99692.75;5110187;28;20218;-72
2023/09/02 02:55:01;;;;;;;2.23;2.13;;;;;;;23.38;81.12;99688.56;5109659;28;20187;-72
2023/09/02 02:57:27;;;;;;;2.13;1.93;;;;;;;23.36;81.76;99695.72;5109907;28;20263;-73
2023/09/02 02:59:54;;;;;;;2.50;2.30;;;;;;;23.33;81.98;99691.53;5109736;28;20574;-72
2023/09/02 03:02:21;;;;;;;1.50;1.50;;;;;;;23.32;82.76;99702.13;5112956;28;20198;-72
2023/09/02 03:04:48;;;;;;;2.90;2.80;;;;;;;23.27;83.50;99701.66;5109857;28;20191;-73
2023/09/02 03:07:15;;;;;;;1.83;1.73;;;;;;;23.18;83.26;99702.34;5112041;28;20223;-73
2023/09/02 03:09:43;;;;;;;2.60;2.50;;;;;;;23.15;83.09;99703.44;5112773;28;20183;-72
2023/09/02 03:12:10;;;;;;;2.43;2.33;;;;;;;22.93;83.48;99670.25;5109368;28;20219;-73
2023/09/02 03:14:37;;;;;;;2.30;2.20;;;;;;;23.13;83.76;99705.34;5110013;28;20669;-72
2023/09/02 03:17:04;;;;;;;2.17;2.07;;;;;;;23.12;83.03;99708.06;5109577;28;20191;-72
2023/09/02 03:19:33;;;;;;;2.03;1.93;;;;;;;23.10;82.93;99712.59;5109149;28;20199;-72
2023/09/02 03:21:59;;;;;;;2.00;1.90;;;;;;;23.07;82.49;99705.78;5110138;28;20195;-72
2023/09/02 03:24:26;;;;;;;1.87;1.77;;;;;;;22.97;82.73;99704.84;5109881;28;20199;-72
2023/09/02 03:26:54;;;;;;;2.80;2.57;;;;;;;22.87;83.25;99701.28;5111156;28;20191;-72
2023/09/02 03:29:22;;;;;;;2.27;2.17;;;;;;;22.80;83.58;99708.75;5120131;27;20199;-72
2023/09/02 03:31:49;;;;;;;1.90;1.80;;;;;;;22.78;83.55;99694.94;5113288;28;20218;-72
2023/09/02 03:34:15;;;;;;;2.40;2.30;;;;;;;22.77;84.41;99711.59;5112782;28;20551;-72
2023/09/02 03:36:42;;;;;;;1.87;1.80;;;;;;;22.70;84.09;99713.00;5111234;28;20199;-73
2023/09/02 03:39:09;;;;;;;2.10;2.00;;;;;;;22.70;84.20;99715.59;5112367;27;20191;-73
2023/09/02 03:41:37;;;;;;;2.37;2.27;;;;;;;22.74;84.82;99718.84;5113241;28;20202;-72
2023/09/02 03:44:05;;;;;;;1.90;1.80;;;;;;;22.73;84.39;99723.22;5113087;28;20197;-73
2023/09/02 03:46:32;;;;;;;8.33;2.03;;;;;;;22.73;84.65;99714.53;5112917;28;20260;-72
2023/09/02 03:48:59;;;;;;;1.80;1.70;;;;;;;22.72;85.17;99711.09;5112921;27;21502;-72
2023/09/02 03:51:26;;;;;;;2.47;2.13;;;;;;;22.71;85.19;99722.50;5112448;28;20248;-73
2023/09/02 03:53:52;;;;;;;2.43;2.27;;;;;;;22.71;85.25;99719.06;5113139;28;20218;-73
2023/09/02 03:56:19;;;;;;;2.57;2.37;;;;;;;22.73;85.66;99712.75;5111863;28;20665;-72
2023/09/02 03:58:46;;;;;;;2.23;2.13;;;;;;;22.74;84.68;99714.44;5112537;27;20199;-72
2023/09/02 04:01:14;;;;;;;2.03;1.93;;;;;;;22.74;83.89;99719.66;5112345;28;20183;-72
2023/09/02 04:03:41;;;;;;;1.70;1.60;;;;;;;22.74;83.49;99714.44;5112907;28;20263;-73
2023/09/02 04:06:08;;;;;;;1.97;1.87;;;;;;;22.74;84.30;99721.44;5112822;28;20195;-71
2023/09/02 04:08:36;;;;;;;3.67;2.13;;;;;;;22.74;83.95;99718.84;5111881;28;20275;-72
2023/09/02 04:11:03;;;;;;;2.17;1.97;;;;;;;22.74;84.19;99726.66;5112890;28;20279;-74
2023/09/02 04:13:30;;;;;;;2.57;2.47;;;;;;;22.76;84.67;99728.22;5112154;28;20306;-74
2023/09/02 04:15:58;;;;;;;3.40;1.77;;;;;;;22.76;85.11;99728.22;5112550;28;20195;-72
2023/09/02 04:18:26;;;;;;;1.87;1.87;;;;;;;22.74;85.14;99729.28;5111907;28;20206;-72
2023/09/02 04:20:54;;;;;;;2.77;2.57;;;;;;;22.73;85.11;99727.63;5112484;28;20273;-72
2023/09/02 04:23:21;;;;;;;2.07;1.97;;;;;;;22.77;84.95;99735.13;5111958;28;20256;-73
2023/09/02 04:25:50;;;;;;;2.00;1.90;;;;;;;22.77;84.89;99735.13;5112445;28;20246;-72
2023/09/02 04:28:18;;;;;;;2.10;2.00;;;;;;;22.78;85.18;99744.59;5111330;28;20194;-72
2023/09/02 04:30:45;;;;;;;2.10;2.00;;;;;;;22.70;85.22;99738.28;5111898;27;20202;-72
2023/09/02 04:33:13;;;;;;;2.13;2.03;;;;;;;22.72;84.89;99742.47;5111831;28;20222;-72
2023/09/02 04:35:43;;;;;;;4.47;2.33;;;;;;;22.74;85.09;99740.59;5110942;28;20677;-72
2023/09/02 04:38:10;;;;;;;2.13;2.03;;;;;;;22.76;85.16;99746.50;5111254;28;20183;-72
2023/09/02 04:40:37;;;;;;;2.40;2.30;;;;;;;22.82;85.66;99747.81;5111798;27;20187;-72
2023/09/02 04:43:05;;;;;;;1.77;1.67;;;;;;;22.79;84.94;99748.91;5111897;28;20669;-72
2023/09/02 04:45:33;;;;;;;2.23;2.13;;;;;;;22.78;85.61;99754.25;5111172;28;20194;-73
2023/09/02 04:48:00;;;;;;;2.40;2.30;;;;;;;22.84;84.70;99757.22;5112032;28;20241;-72
2023/09/02 04:50:27;;;;;;;2.17;2.07;;;;;;;22.93;85.19;99760.94;5111439;28;20677;-72
2023/09/02 04:52:56;;;;;;;2.07;1.97;;;;;;;22.95;84.54;99762.47;5111402;28;20673;-73
2023/09/02 04:55:24;;;;;;;2.03;1.93;;;;;;;22.96;84.49;99764.16;5111386;28;20669;-72
2023/09/02 04:57:51;;;;;;;2.97;2.83;;;;;;;22.99;84.78;99761.31;5111459;27;20195;-73
2023/09/02 05:00:19;;;;;;;2.13;2.03;;;;;;;23.10;84.48;99762.28;5111387;28;20195;-73
2023/09/02 05:02:46;;;;;;;2.20;2.10;;;;;;;23.25;84.94;99761.09;5111317;28;20186;-72
2023/09/02 05:05:14;;;;;;;2.33;2.13;;;;;;;23.41;83.94;99761.63;5110576;27;20218;-72
2023/09/02 05:07:40;;;;;;;2.00;1.90;;;;;;;23.57;82.27;99756.03;5111034;28;20219;-74
2023/09/02 05:10:09;;;;;;;2.77;2.27;;;;;;;23.61;79.63;99760.94;5110568;28;20194;-75
2023/09/02 05:12:36;;;;;;;1.93;1.83;;;;;;;23.63;80.04;99759.00;5108116;28;20214;-74
2023/09/02 05:15:04;;;;;;;2.60;2.50;;;;;;;23.66;79.84;99757.94;5110600;28;20760;-72
2023/09/02 05:17:31;;;;;;;2.27;2.17;;;;;;;23.74;79.23;99759.00;5111156;28;20218;-72
2023/09/02 05:19:58;;;;;;;2.10;2.00;;;;;;;23.87;79.23;99751.84;5109599;28;20187;-72
2023/09/02 05:22:25;;;;;;;5.97;2.10;;;;;;;23.91;78.55;99766.34;5110572;28;20697;-72
2023/09/02 05:24:52;;;;;;;2.47;2.37;;;;;;;24.00;78.15;99763.03;5110843;28;20243;-72
2023/09/02 05:27:20;;;;;;;1.70;1.60;;;;;;;24.08;77.80;99772.03;5110997;28;20206;-72
2023/09/02 05:29:46;;;;;;;2.43;2.30;;;;;;;24.20;77.28;99765.88;5111087;28;20195;-73
2023/09/02 05:32:14;;;;;;;2.00;1.80;;;;;;;24.36;77.28;99763.66;5110634;27;20206;-72
2023/09/02 05:34:41;;;;;;;2.10;1.90;;;;;;;24.50;77.68;99763.34;5111447;28;20214;-71
2023/09/02 05:37:08;;;;;;;1.87;1.87;;;;;;;24.66;76.50;99757.69;5115002;27;20288;-72
2023/09/02 05:39:35;;;;;;;2.07;1.97;;;;;;;24.74;74.59;99750.88;5110270;28;20191;-71
2023/09/02 05:42:02;;;;;;;2.00;1.90;;;;;;;24.95;74.91;99767.47;5110253;28;20198;-73
2023/09/02 05:44:31;;;;;;;1.90;1.80;;;;;;;25.17;74.45;99770.91;5105682;27;20199;-72
2023/09/02 05:46:57;;;;;;;1.40;1.40;;;;;;;25.39;73.73;99765.50;5107886;27;20278;-72
2023/09/02 05:49:24;;;;;;;2.70;2.33;;;;;;;25.65;72.91;99768.53;5108064;28;20512;-72
2023/09/02 05:51:51;;;;;;;2.07;1.97;;;;;;;25.84;70.38;99774.69;5108909;28;20207;-72
2023/09/02 05:54:18;;;;;;;2.23;2.13;;;;;;;26.03;69.89;99780.00;5109255;28;20249;-72
2023/09/02 05:56:47;;;;;;;3.30;2.30;;;;;;;26.21;68.58;99776.72;5106703;28;20206;-72
2023/09/02 05:59:14;;;;;;;1.67;1.57;;;;;;;26.43;69.21;99779.13;5108871;28;20240;-71
2023/09/02 06:01:43;;;;;;;2.13;2.03;;;;;;;26.67;68.20;99778.69;5106825;28;20199;-72
2023/09/02 06:04:09;;;;;;;1.87;1.77;;;;;;;26.89;66.65;99776.63;5107072;28;20205;-73
2023/09/02 06:06:36;;;;;;;1.80;1.70;;;;;;;27.09;63.66;99791.41;5109104;28;20271;-72
2023/09/02 06:09:03;;;;;;;1.73;1.63;;;;;;;27.24;63.08;99788.34;5109397;28;20226;-72
2023/09/02 06:11:30;;;;;;;2.40;1.37;;;;;;;27.43;61.25;99793.56;5107736;28;20962;-73
2023/09/02 06:13:57;;;;;;;1.93;1.83;;;;;;;27.56;61.34;99796.72;5103197;28;20761;-73
2023/09/02 06:16:24;;;;;;;1.50;1.50;;;;;;;27.59;61.06;99796.44;5106755;28;20199;-73
2023/09/02 06:18:52;;;;;;;1.50;1.50;;;;;;;27.73;58.12;99801.22;5106093;28;20581;-73
2023/09/02 06:21:19;;;;;;;1.40;1.40;;;;;;;27.87;58.52;99802.56;5110384;28;20611;-75
2023/09/02 06:23:46;;;;;;;3.17;1.50;;;;;;;27.96;57.97;99801.66;5105915;28;20195;-72
2023/09/02 06:26:13;;;;;;;1.43;1.43;;;;;;;28.17;55.76;99810.19;5105845;28;20203;-72
2023/09/02 06:28:41;;;;;;;1.10;1.07;;;;;;;28.33;56.32;99804.25;5107988;28;20700;-73
2023/09/02 06:31:08;;;;;;;1.03;1.03;;;;;;;28.57;55.08;99807.94;5109600;28;20194;-73
2023/09/02 06:33:35;;;;;;;1.23;1.23;;;;;;;28.82;54.77;99800.28;5107479;28;20222;-72
2023/09/02 06:36:11;;;;;;;1.20;1.20;;;;;;;29.00;52.86;99801.91;5107694;28;20210;-72
2023/09/02 06:38:38;;;;;;;1.20;1.10;;;;;;;29.31;55.95;99809.41;5108298;28;20825;-73
2023/09/02 06:41:10;;;;;;;1.07;1.07;;;;;;;29.47;50.94;99798.94;5106224;28;20267;-74
2023/09/02 06:43:37;;;;;;;0.98;0.98;;;;;;;29.64;49.41;99800.69;5106933;28;20749;-74
2023/09/02 06:46:09;;;;;;;1.08;1.08;;;;;;;29.83;49.73;99802.28;5108998;28;20670;-72
2023/09/02 06:48:36;;;;;;;1.23;1.13;;;;;;;30.05;48.94;99810.44;5109352;28;20280;-73
2023/09/02 06:51:03;;;;;;;1.42;1.33;;;;;;;30.18;48.83;99807.34;5107296;28;20259;-73
2023/09/02 06:53:31;;;;;;;1.63;1.63;;;;;;;30.36;50.21;99799.28;5107859;28;20223;-73
2023/09/02 06:55:58;;;;;;;1.48;1.38;;;;;;;30.42;47.98;99804.78;5108066;28;20195;-73
2023/09/02 06:58:25;;;;;;;1.50;1.40;;;;;;;30.66;47.47;99804.81;5108576;28;20722;-73
2023/09/02 07:00:51;;;;;;;0.90;0.90;;;;;;;30.82;50.04;99806.66;5110828;28;20330;-73
2023/09/02 07:03:18;;;;;;;1.13;1.13;;;;;;;30.85;47.07;99810.78;5110579;28;20622;-73
2023/09/02 07:05:45;;;;;;;1.13;1.13;;;;;;;30.92;48.69;99807.28;5110307;28;20750;-72
2023/09/02 07:08:11;;;;;;;1.10;1.10;;;;;;;30.98;47.71;99811.16;5111748;28;20279;-75
2023/09/02 07:10:40;;;;;;;4.13;1.20;;;;;;;31.08;46.42;99814.44;5111056;28;20191;-74
2023/09/02 07:13:06;;;;;;;1.00;1.00;;;;;;;31.17;44.62;99816.94;5111258;28;20707;-74
2023/09/02 07:15:34;;;;;;;1.00;1.00;;;;;;;31.12;44.54;99815.75;5109930;28;20262;-73
2023/09/02 07:18:02;;;;;;;0.90;0.90;;;;;;;31.31;43.70;99817.22;5112426;28;20298;-74
2023/09/02 07:20:28;;;;;;;1.00;1.00;;;;;;;31.48;42.83;99818.84;5111305;28;21778;-74
2023/09/02 07:22:56;;;;;;;1.10;1.10;;;;;;;31.59;45.23;99821.16;5112277;28;20609;-73
2023/09/02 07:25:23;;;;;;;3.03;2.83;;;;;;;31.76;44.31;99822.78;5112797;27;20198;-72
2023/09/02 07:27:51;;;;;;;1.70;1.60;;;;;;;31.79;42.00;99822.44;5107205;28;20198;-75
2023/09/02 07:30:17;;;;;;;0.88;0.88;;;;;;;31.89;40.87;99817.72;5107189;28;20288;-72
2023/09/02 07:32:44;;;;;;;1.25;1.25;;;;;;;32.00;40.46;99814.69;5110772;28;20199;-72
2023/09/02 07:35:11;;;;;;;0.90;0.90;;;;;;;31.77;40.97;99813.81;5111403;27;20214;-74
2023/09/02 07:37:38;;;;;;;1.02;1.02;;;;;;;31.56;42.43;99816.22;5112173;28;20203;-72
2023/09/02 07:40:06;;;;;;;0.90;0.90;;;;;;;31.40;41.96;99811.75;5109267;28;20206;-72
2023/09/02 07:42:33;;;;;;;1.25;1.13;;;;;;;31.27;42.46;99807.97;5112410;28;20222;-74
2023/09/02 07:45:01;;;;;;;1.08;1.08;;;;;;;31.21;42.85;99809.47;5111696;28;20194;-73
2023/09/02 07:47:27;;;;;;;0.85;0.82;;;;;;;31.40;42.32;99814.41;5110728;28;20264;-72
2023/09/02 07:49:55;;;;;;;1.00;1.00;;;;;;;31.62;41.46;99812.88;5107072;28;20434;-72
2023/09/02 07:52:23;;;;;;;1.00;1.00;;;;;;;31.57;42.66;99812.53;5108661;28;20452;-74
2023/09/02 07:54:51;;;;;;;1.13;1.13;;;;;;;31.50;41.78;99806.28;5110924;28;20229;-73
2023/09/02 07:57:18;;;;;;;1.08;1.08;;;;;;;31.37;41.64;99806.78;5110577;28;20205;-74
2023/09/02 07:59:44;;;;;;;1.08;0.93;;;;;;;31.40;42.03;99805.63;5111817;28;20289;-74
2023/09/02 08:02:12;;;;;;;0.88;0.88;;;;;;;31.24;41.03;99806.47;5111431;28;20198;-74
2023/09/02 08:04:39;;;;;;;0.90;0.90;;;;;;;31.10;42.26;99808.00;5110965;28;20740;-74
2023/09/02 08:07:06;;;;;;;0.82;0.82;;;;;;;31.28;41.57;99812.28;5109257;28;20290;-75
2023/09/02 08:09:33;;;;;;;0.77;0.77;;;;;;;31.37;41.11;99811.25;5110139;28;20644;-74
2023/09/02 08:11:59;;;;;;;0.80;0.80;;;;;;;31.31;41.69;99812.75;5110476;28;20661;-74
2023/09/02 08:14:26;;;;;;;0.98;0.88;;;;;;;31.40;41.80;99816.22;5112127;28;20630;-75
2023/09/02 08:16:53;;;;;;;1.02;1.02;;;;;;;31.19;41.89;99814.94;5112172;28;20186;-74
2023/09/02 08:19:22;;;;;;;0.68;0.68;;;;;;;31.31;42.44;99815.38;5112122;27;20597;-75
2023/09/02 08:21:49;;;;;;;0.60;0.60;;;;;;;31.39;41.44;99811.91;5112527;28;20693;-74
2023/09/02 08:24:16;;;;;;;0.88;0.88;;;;;;;31.44;42.75;99812.25;5109424;27;20205;-75
2023/09/02 08:26:42;;;;;;;1.95;1.08;;;;;;;31.61;42.58;99816.50;5115083;27;20217;-76
2023/09/02 08:29:10;;;;;;;1.98;1.17;;;;;;;31.67;42.68;99813.16;5116528;27;20195;-74
2023/09/02 08:31:36;;;;;;;0.70;0.70;;;;;;;31.94;42.69;99811.91;5110726;28;20187;-74
2023/09/02 08:34:03;;;;;;;0.80;0.80;;;;;;;32.25;41.48;99808.28;5112288;28;20221;-75
2023/09/02 08:36:31;;;;;;;0.88;0.88;;;;;;;31.88;40.46;99805.47;5112080;28;20193;-74
2023/09/02 08:38:58;;;;;;;0.75;0.75;;;;;;;31.97;43.03;99804.44;5111841;28;20202;-74
2023/09/02 08:41:28;;;;;;;0.90;0.90;;;;;;;31.73;41.03;99801.88;5112766;28;20187;-75
2023/09/02 08:43:55;;;;;;;0.75;0.75;;;;;;;31.83;41.15;99802.50;5111468;28;20658;-75
2023/09/02 08:46:26;;;;;;;0.80;0.80;;;;;;;31.91;41.45;99809.59;5112673;28;20677;-74
2023/09/02 08:48:56;;;;;;;1.00;1.00;;;;;;;31.77;42.46;99805.00;5111580;28;20186;-74
2023/09/02 08:51:23;;;;;;;0.90;0.90;;;;;;;31.89;40.53;99807.13;5109748;28;20268;-74
2023/09/02 08:53:52;;;;;;;0.90;0.90;;;;;;;31.93;41.24;99781.91;5110804;28;20214;-74
2023/09/02 08:56:18;;;;;;;1.13;0.95;;;;;;;32.15;40.13;99812.97;5112176;27;20669;-74
2023/09/02 08:58:46;;;;;;;1.95;1.00;;;;;;;32.32;39.45;99807.59;5116997;27;20199;-75
2023/09/02 09:01:20;;;;;;;0.82;0.82;;;;;;;32.31;40.04;99808.59;5112704;28;20262;-74
2023/09/02 09:03:49;;;;;;;0.88;0.88;;;;;;;32.26;40.25;99798.50;5111509;28;20628;-75
2023/09/02 09:06:20;;;;;;;0.93;0.93;;;;;;;32.23;40.73;99810.31;5122177;27;20206;-76
2023/09/02 09:08:48;;;;;;;4.57;0.70;;;;;;;32.10;39.56;99799.44;5112263;28;20253;-77
2023/09/02 09:11:17;;;;;;;1.20;1.10;;;;;;;32.28;38.46;99803.66;5112348;28;20680;-74
2023/09/02 09:13:46;;;;;;;1.17;1.15;;;;;;;32.22;38.57;99803.34;5111951;28;20310;-75
2023/09/02 09:16:17;;;;;;;0.98;0.98;;;;;;;32.42;40.36;99798.41;5112135;28;20195;-74
2023/09/02 09:18:44;;;;;;;0.80;0.80;;;;;;;32.53;40.76;99790.03;5112329;28;20210;-74
2023/09/02 09:21:10;;;;;;;1.50;1.40;;;;;;;32.42;39.14;99798.41;5111894;28;20195;-74
2023/09/02 09:23:37;;;;;;;1.25;1.23;;;;;;;32.06;38.91;99784.84;5111573;28;20263;-75
2023/09/02 09:26:05;;;;;;;1.00;1.00;;;;;;;31.96;39.58;99796.63;5111085;28;20582;-74
2023/09/02 09:28:52;;;;;;;0.93;0.90;;;;;;;31.90;39.17;99792.88;5112131;28;20224;-74
2023/09/02 09:31:20;;;;;;;1.05;0.80;;;;;;;32.16;38.16;99785.47;5112197;28;20217;-74
2023/09/02 09:33:51;;;;;;;1.60;0.80;;;;;;;31.95;38.61;99748.09;5111908;28;20287;-75
2023/09/02 09:36:20;;;;;;;0.95;0.93;;;;;;;32.03;38.65;99784.34;5111638;28;20244;-75
2023/09/02 09:38:47;;;;;;;0.70;0.70;;;;;;;32.04;38.23;99776.25;5111795;28;20236;-76
2023/09/02 09:41:14;;;;;;;1.08;1.08;;;;;;;32.24;39.31;99789.91;5111440;28;20194;-73
2023/09/02 09:43:41;;;;;;;0.70;0.70;;;;;;;32.20;38.53;99781.47;5111971;28;20207;-75
2023/09/02 09:46:14;;;;;;;0.90;0.90;;;;;;;32.23;38.74;99775.81;5111198;28;20191;-76
2023/09/02 09:48:47;;;;;;;0.82;0.82;;;;;;;32.28;38.52;99774.47;5111839;28;20273;-75
2023/09/02 09:51:22;;;;;;;0.90;0.90;;;;;;;32.37;36.35;99768.09;5111230;27;20248;-75
2023/09/02 09:53:50;;;;;;;0.80;0.80;;;;;;;32.57;36.51;99766.66;5118653;27;20643;-75
2023/09/02 09:56:17;;;;;;;1.02;1.02;;;;;;;32.67;37.63;99765.38;5121079;27;20697;-75
2023/09/02 09:58:44;;;;;;;1.83;0.68;;;;;;;32.70;37.00;99774.81;5111794;28;20212;-74
2023/09/02 10:01:20;;;;;;;0.88;0.88;;;;;;;32.48;36.47;99765.00;5105569;28;20198;-76
2023/09/02 10:03:47;;;;;;;0.80;0.80;;;;;;;32.41;35.78;99758.78;5108298;28;20248;-76
2023/09/02 10:06:14;;;;;;;0.75;0.75;;;;;;;32.24;36.99;99769.50;5111170;28;20704;-75
2023/09/02 10:09:00;;;;;;;2.42;1.20;;;;;;;32.34;39.26;99761.31;5111666;28;20635;-75
2023/09/02 10:11:27;;;;;;;0.80;0.80;;;;;;;32.45;38.47;99754.75;5110990;28;20247;-76
2023/09/02 10:13:54;;;;;;;1.65;1.40;;;;;;;32.35;37.21;99757.63;5111501;28;20183;-75
2023/09/02 10:16:24;;;;;;;1.45;1.35;;;;;;;32.31;37.74;99751.06;5110933;28;20198;-75
2023/09/02 10:18:51;;;;;;;2.78;1.08;;;;;;;32.40;36.09;99751.81;5110933;28;20195;-76
2023/09/02 10:21:19;;;;;;;1.00;1.00;;;;;;;32.58;37.20;99760.31;5110996;28;20190;-75
2023/09/02 10:23:50;;;;;;;1.00;1.00;;;;;;;32.79;37.58;99755.16;5111628;28;20255;-75
2023/09/02 10:26:24;;;;;;;0.80;0.80;;;;;;;32.88;36.10;99750.59;5111161;28;20281;-75
2023/09/02 10:28:55;;;;;;;1.15;1.15;;;;;;;32.92;37.88;99752.72;5111145;28;20191;-75
2023/09/02 10:31:26;;;;;;;0.90;0.90;;;;;;;33.02;37.21;99752.47;5111148;28;20203;-75
2023/09/02 10:34:01;;;;;;;0.80;0.80;;;;;;;33.08;36.82;99752.56;5111185;28;20248;-75
2023/09/02 10:36:32;;;;;;;1.23;1.13;;;;;;;33.00;36.31;99744.66;5113539;28;20281;-75
2023/09/02 10:39:03;;;;;;;1.38;1.30;;;;;;;32.89;35.79;99738.97;5115208;27;20714;-75
2023/09/02 10:41:31;;;;;;;1.00;1.00;;;;;;;32.91;36.92;99740.44;5115133;28;20573;-75
2023/09/02 10:43:59;;;;;;;0.98;0.98;;;;;;;32.96;36.09;99742.56;5114649;28;20227;-75
2023/09/02 10:46:28;;;;;;;1.05;1.05;;;;;;;33.06;36.45;99743.94;5114399;28;20701;-76
2023/09/02 10:48:55;;;;;;;3.08;0.93;;;;;;;32.91;34.85;99735.13;5115571;27;20199;-75
2023/09/02 10:51:22;;;;;;;0.90;0.90;;;;;;;32.96;35.00;99738.06;5114494;28;20812;-75
2023/09/02 10:54:02;;;;;;;1.70;1.50;;;;;;;32.61;37.48;99733.41;5115142;28;20756;-75
2023/09/02 10:56:30;;;;;;;1.25;0.98;;;;;;;32.71;36.39;99728.66;5115076;28;20194;-76
2023/09/02 10:58:58;;;;;;;0.95;0.95;;;;;;;32.99;36.96;99729.72;5115064;28;20186;-75
2023/09/02 11:01:25;;;;;;;0.80;0.80;;;;;;;32.96;35.63;99738.06;5114871;28;20620;-75
2023/09/02 11:03:55;;;;;;;0.80;0.80;;;;;;;32.86;35.68;99732.16;5115068;28;20692;-75
2023/09/02 11:06:21;;;;;;;1.60;1.50;;;;;;;32.64;35.90;99712.63;5114146;28;20677;-75
2023/09/02 11:08:50;;;;;;;0.90;0.90;;;;;;;32.59;35.39;99724.81;5114714;27;20654;-75
2023/09/02 11:11:17;;;;;;;0.82;0.80;;;;;;;32.74;37.00;99733.63;5114655;28;20244;-75
2023/09/02 11:14:21;;;;;;;1.73;1.00;;;;;;;32.68;35.75;99724.56;5114627;27;20186;-74
2023/09/02 11:17:20;;;;;;;1.42;1.35;;;;;;;32.84;35.66;99720.91;5113787;28;20577;-76
2023/09/02 11:20:04;;;;;;;0.80;0.80;;;;;;;32.77;35.43;99719.97;5112942;28;20255;-75
2023/09/02 11:22:55;;;;;;;0.60;0.60;;;;;;;32.91;36.52;99721.84;5112666;27;20195;-75
2023/09/02 11:25:33;;;;;;;1.10;1.00;;;;;;;32.68;36.00;99721.06;5114481;28;20203;-75
2023/09/02 11:28:01;;;;;;;1.10;1.10;;;;;;;32.76;35.80;99715.69;5114304;28;20194;-75
2023/09/02 11:30:30;;;;;;;1.02;1.02;;;;;;;32.68;35.08;99708.63;5114223;28;20223;-75
2023/09/02 11:32:57;;;;;;;1.25;0.95;;;;;;;32.74;35.33;99707.91;5114319;28;20248;-75
2023/09/02 11:35:30;;;;;;;1.17;1.17;;;;;;;32.91;36.49;99697.94;5114180;28;20222;-75
2023/09/02 11:37:57;;;;;;;0.85;0.85;;;;;;;33.05;37.24;99699.78;5112078;28;20198;-75
2023/09/02 11:40:25;;;;;;;1.20;1.00;;;;;;;33.20;35.47;99705.94;5114317;28;20249;-75